Terminal Aerodrome Forecast
Issued by NWS Wilmington, OH

Current Version | Previous Version | Graphics & Text | Print | Product List | Glossary On
Versions: 1 2 3 4 5 6 7 8 9 10 11 12 13 14 15 16 17 18 19 20 21 22 23 24 25 26 27 28
000
FTUS41 KILN 301500 AAA
TAFCVG
TAF AMD
KCVG 301501Z 3015/3118 22008KT P6SM SCT080 BKN200
     FM301800 22011G17KT P6SM BKN050 OVC250
     FM302300 21008KT P6SM VCTS SCT040CB BKN090 OVC250
     FM310100 17008KT P6SM -SHRA VCTS SCT020CB OVC080
     FM310900 18006KT 4SM -SHRA BR VCTS OVC015CB=

USA.gov is the U.S. government's official web portal to all federal, state and local government web resources and services.